sensor_id;sensor_type;location;lat;lon;timestamp;P1;durP1;ratioP1;P2;durP2;ratioP2
29412;SDS011;16389;50.126;8.450;2023-10-13T00:02:01;13.90;;;9.68;;
29412;SDS011;16389;50.126;8.450;2023-10-13T00:04:30;15.27;;;9.27;;
29412;SDS011;16389;50.126;8.450;2023-10-13T00:06:58;15.60;;;9.75;;
29412;SDS011;16389;50.126;8.450;2023-10-13T00:09:27;14.80;;;9.30;;
29412;SDS011;16389;50.126;8.450;2023-10-13T00:12:06;12.90;;;9.13;;
29412;SDS011;16389;50.126;8.450;2023-10-13T00:14:35;13.88;;;10.23;;
29412;SDS011;16389;50.126;8.450;2023-10-13T00:17:02;15.73;;;10.88;;
29412;SDS011;16389;50.126;8.450;2023-10-13T00:19:31;14.55;;;10.57;;
29412;SDS011;16389;50.126;8.450;2023-10-13T00:22:10;16.98;;;10.90;;
29412;SDS011;16389;50.126;8.450;2023-10-13T00:24:40;17.15;;;10.73;;
29412;SDS011;16389;50.126;8.450;2023-10-13T00:27:19;17.13;;;10.25;;
29412;SDS011;16389;50.126;8.450;2023-10-13T00:29:57;14.25;;;10.07;;
29412;SDS011;16389;50.126;8.450;2023-10-13T00:32:50;10.90;;;9.68;;
29412;SDS011;16389;50.126;8.450;2023-10-13T00:35:21;16.02;;;10.68;;
29412;SDS011;16389;50.126;8.450;2023-10-13T00:37:53;15.25;;;10.85;;
29412;SDS011;16389;50.126;8.450;2023-10-13T00:40:19;13.63;;;11.05;;
29412;SDS011;16389;50.126;8.450;2023-10-13T00:42:55;15.25;;;9.75;;
29412;SDS011;16389;50.126;8.450;2023-10-13T00:45:43;16.52;;;10.65;;
29412;SDS011;16389;50.126;8.450;2023-10-13T00:50:39;18.42;;;10.95;;
29412;SDS011;16389;50.126;8.450;2023-10-13T00:53:06;14.25;;;11.25;;
29412;SDS011;16389;50.126;8.450;2023-10-13T00:55:33;14.73;;;10.70;;
29412;SDS011;16389;50.126;8.450;2023-10-13T00:57:59;14.45;;;11.48;;
29412;SDS011;16389;50.126;8.450;2023-10-13T01:00:31;16.10;;;12.25;;
29412;SDS011;16389;50.126;8.450;2023-10-13T01:02:57;15.57;;;11.43;;
29412;SDS011;16389;50.126;8.450;2023-10-13T01:05:31;13.98;;;12.57;;
29412;SDS011;16389;50.126;8.450;2023-10-13T01:08:01;16.33;;;12.07;;
29412;SDS011;16389;50.126;8.450;2023-10-13T01:10:28;13.40;;;10.57;;
29412;SDS011;16389;50.126;8.450;2023-10-13T01:12:57;12.95;;;9.95;;
29412;SDS011;16389;50.126;8.450;2023-10-13T01:15:27;20.27;;;10.27;;
29412;SDS011;16389;50.126;8.450;2023-10-13T01:18:11;25.45;;;11.00;;
29412;SDS011;16389;50.126;8.450;2023-10-13T01:20:38;14.75;;;10.45;;
29412;SDS011;16389;50.126;8.450;2023-10-13T01:23:17;13.40;;;9.38;;
29412;SDS011;16389;50.126;8.450;2023-10-13T01:25:43;15.98;;;9.93;;
29412;SDS011;16389;50.126;8.450;2023-10-13T01:28:10;14.98;;;10.23;;
29412;SDS011;16389;50.126;8.450;2023-10-13T01:30:45;12.57;;;9.60;;
29412;SDS011;16389;50.126;8.450;2023-10-13T01:33:17;15.10;;;10.63;;
29412;SDS011;16389;50.126;8.450;2023-10-13T01:35:54;11.32;;;10.10;;
29412;SDS011;16389;50.126;8.450;2023-10-13T01:40:53;20.63;;;9.73;;
29412;SDS011;16389;50.126;8.450;2023-10-13T01:43:21;11.00;;;9.73;;
29412;SDS011;16389;50.126;8.450;2023-10-13T01:45:48;17.02;;;11.85;;
29412;SDS011;16389;50.126;8.450;2023-10-13T01:48:17;16.80;;;11.68;;
29412;SDS011;16389;50.126;8.450;2023-10-13T01:50:46;19.42;;;10.60;;
29412;SDS011;16389;50.126;8.450;2023-10-13T01:53:13;15.10;;;10.95;;
29412;SDS011;16389;50.126;8.450;2023-10-13T01:55:42;13.17;;;10.63;;
29412;SDS011;16389;50.126;8.450;2023-10-13T01:58:14;14.90;;;12.15;;
29412;SDS011;16389;50.126;8.450;2023-10-13T02:00:41;15.98;;;11.55;;
29412;SDS011;16389;50.126;8.450;2023-10-13T02:03:09;19.35;;;12.43;;
29412;SDS011;16389;50.126;8.450;2023-10-13T02:05:45;16.27;;;10.82;;
29412;SDS011;16389;50.126;8.450;2023-10-13T02:08:18;13.98;;;10.55;;
29412;SDS011;16389;50.126;8.450;2023-10-13T02:10:52;15.40;;;10.50;;
29412;SDS011;16389;50.126;8.450;2023-10-13T02:13:19;18.67;;;11.23;;
29412;SDS011;16389;50.126;8.450;2023-10-13T02:15:47;15.90;;;10.35;;
29412;SDS011;16389;50.126;8.450;2023-10-13T02:18:16;17.97;;;10.73;;
29412;SDS011;16389;50.126;8.450;2023-10-13T02:20:46;15.63;;;11.93;;
29412;SDS011;16389;50.126;8.450;2023-10-13T02:23:19;16.00;;;11.63;;
29412;SDS011;16389;50.126;8.450;2023-10-13T02:25:54;23.95;;;12.73;;
29412;SDS011;16389;50.126;8.450;2023-10-13T02:28:28;12.77;;;10.23;;
29412;SDS011;16389;50.126;8.450;2023-10-13T02:31:01;22.10;;;11.35;;
29412;SDS011;16389;50.126;8.450;2023-10-13T02:33:28;21.90;;;12.63;;
29412;SDS011;16389;50.126;8.450;2023-10-13T02:35:58;13.35;;;11.90;;
29412;SDS011;16389;50.126;8.450;2023-10-13T02:38:24;19.98;;;11.38;;
29412;SDS011;16389;50.126;8.450;2023-10-13T02:40:59;16.95;;;11.65;;
29412;SDS011;16389;50.126;8.450;2023-10-13T02:43:34;20.00;;;12.02;;
29412;SDS011;16389;50.126;8.450;2023-10-13T02:46:00;12.88;;;11.60;;
29412;SDS011;16389;50.126;8.450;2023-10-13T02:48:26;15.07;;;11.50;;
29412;SDS011;16389;50.126;8.450;2023-10-13T02:51:05;19.67;;;12.30;;
29412;SDS011;16389;50.126;8.450;2023-10-13T02:53:40;14.50;;;11.40;;
29412;SDS011;16389;50.126;8.450;2023-10-13T02:56:06;20.98;;;12.80;;
29412;SDS011;16389;50.126;8.450;2023-10-13T02:58:32;15.95;;;11.68;;
29412;SDS011;16389;50.126;8.450;2023-10-13T03:01:05;20.67;;;11.40;;
29412;SDS011;16389;50.126;8.450;2023-10-13T03:03:42;21.73;;;11.32;;
29412;SDS011;16389;50.126;8.450;2023-10-13T03:06:08;13.85;;;11.52;;
29412;SDS011;16389;50.126;8.450;2023-10-13T03:08:37;13.60;;;10.90;;
29412;SDS011;16389;50.126;8.450;2023-10-13T03:11:04;18.83;;;11.35;;
29412;SDS011;16389;50.126;8.450;2023-10-13T03:13:34;19.00;;;11.02;;
29412;SDS011;16389;50.126;8.450;2023-10-13T03:16:00;10.57;;;9.55;;
29412;SDS011;16389;50.126;8.450;2023-10-13T03:18:29;17.15;;;12.02;;
29412;SDS011;16389;50.126;8.450;2023-10-13T03:20:59;19.98;;;11.43;;
29412;SDS011;16389;50.126;8.450;2023-10-13T03:23:27;16.77;;;10.60;;
29412;SDS011;16389;50.126;8.450;2023-10-13T03:25:53;13.50;;;9.48;;
29412;SDS011;16389;50.126;8.450;2023-10-13T03:28:20;11.85;;;10.63;;
29412;SDS011;16389;50.126;8.450;2023-10-13T03:33:18;12.25;;;10.13;;
29412;SDS011;16389;50.126;8.450;2023-10-13T03:35:54;20.98;;;11.50;;
29412;SDS011;16389;50.126;8.450;2023-10-13T03:38:24;13.52;;;10.75;;
29412;SDS011;16389;50.126;8.450;2023-10-13T03:40:52;10.90;;;9.90;;
29412;SDS011;16389;50.126;8.450;2023-10-13T03:43:22;13.18;;;10.88;;
29412;SDS011;16389;50.126;8.450;2023-10-13T03:45:54;15.23;;;11.35;;
29412;SDS011;16389;50.126;8.450;2023-10-13T03:48:32;13.85;;;10.07;;
29412;SDS011;16389;50.126;8.450;2023-10-13T03:51:05;15.60;;;10.68;;
29412;SDS011;16389;50.126;8.450;2023-10-13T03:53:32;11.93;;;10.73;;
29412;SDS011;16389;50.126;8.450;2023-10-13T03:56:07;12.90;;;10.35;;
29412;SDS011;16389;50.126;8.450;2023-10-13T03:58:37;11.77;;;10.02;;
29412;SDS011;16389;50.126;8.450;2023-10-13T04:01:04;15.25;;;10.30;;
29412;SDS011;16389;50.126;8.450;2023-10-13T04:03:35;17.75;;;10.77;;
29412;SDS011;16389;50.126;8.450;2023-10-13T04:06:04;13.23;;;10.02;;
29412;SDS011;16389;50.126;8.450;2023-10-13T04:08:41;11.85;;;10.55;;
29412;SDS011;16389;50.126;8.450;2023-10-13T04:11:13;19.23;;;9.65;;
29412;SDS011;16389;50.126;8.450;2023-10-13T04:13:58;15.70;;;10.57;;
29412;SDS011;16389;50.126;8.450;2023-10-13T04:16:49;19.27;;;9.98;;
29412;SDS011;16389;50.126;8.450;2023-10-13T04:19:19;12.77;;;9.60;;
29412;SDS011;16389;50.126;8.450;2023-10-13T04:21:49;16.77;;;10.43;;
29412;SDS011;16389;50.126;8.450;2023-10-13T04:24:23;14.45;;;10.25;;
29412;SDS011;16389;50.126;8.450;2023-10-13T04:27:00;18.58;;;11.35;;
29412;SDS011;16389;50.126;8.450;2023-10-13T04:29:41;18.33;;;9.68;;
29412;SDS011;16389;50.126;8.450;2023-10-13T04:32:22;16.30;;;9.57;;
29412;SDS011;16389;50.126;8.450;2023-10-13T04:34:55;15.05;;;9.52;;
29412;SDS011;16389;50.126;8.450;2023-10-13T04:37:35;10.65;;;9.57;;
29412;SDS011;16389;50.126;8.450;2023-10-13T04:40:26;14.40;;;10.40;;
29412;SDS011;16389;50.126;8.450;2023-10-13T04:43:00;17.13;;;10.95;;
29412;SDS011;16389;50.126;8.450;2023-10-13T04:45:30;16.42;;;10.45;;
29412;SDS011;16389;50.126;8.450;2023-10-13T04:47:56;14.98;;;8.65;;
29412;SDS011;16389;50.126;8.450;2023-10-13T04:50:43;11.80;;;8.95;;
29412;SDS011;16389;50.126;8.450;2023-10-13T04:53:22;15.63;;;10.07;;
29412;SDS011;16389;50.126;8.450;2023-10-13T04:56:20;13.13;;;9.98;;
29412;SDS011;16389;50.126;8.450;2023-10-13T04:59:05;13.18;;;9.05;;
29412;SDS011;16389;50.126;8.450;2023-10-13T05:01:42;18.73;;;11.05;;
29412;SDS011;16389;50.126;8.450;2023-10-13T05:04:27;12.95;;;10.18;;
29412;SDS011;16389;50.126;8.450;2023-10-13T05:07:04;15.82;;;11.15;;
29412;SDS011;16389;50.126;8.450;2023-10-13T05:09:49;12.95;;;10.68;;
29412;SDS011;16389;50.126;8.450;2023-10-13T05:12:34;14.95;;;10.07;;
29412;SDS011;16389;50.126;8.450;2023-10-13T05:15:19;11.60;;;10.50;;
29412;SDS011;16389;50.126;8.450;2023-10-13T05:18:04;15.98;;;11.60;;
29412;SDS011;16389;50.126;8.450;2023-10-13T05:20:48;13.10;;;10.23;;
29412;SDS011;16389;50.126;8.450;2023-10-13T05:23:33;15.70;;;11.68;;
29412;SDS011;16389;50.126;8.450;2023-10-13T05:26:17;20.02;;;12.13;;
29412;SDS011;16389;50.126;8.450;2023-10-13T05:29:02;12.52;;;10.52;;
29412;SDS011;16389;50.126;8.450;2023-10-13T05:31:47;15.90;;;11.65;;
29412;SDS011;16389;50.126;8.450;2023-10-13T05:34:31;14.68;;;11.82;;
29412;SDS011;16389;50.126;8.450;2023-10-13T05:37:16;17.50;;;11.45;;
29412;SDS011;16389;50.126;8.450;2023-10-13T05:40:00;14.32;;;11.98;;
29412;SDS011;16389;50.126;8.450;2023-10-13T05:42:49;16.63;;;12.30;;
29412;SDS011;16389;50.126;8.450;2023-10-13T05:45:34;17.17;;;11.98;;
29412;SDS011;16389;50.126;8.450;2023-10-13T05:48:19;15.73;;;11.77;;
29412;SDS011;16389;50.126;8.450;2023-10-13T05:51:00;17.52;;;10.75;;
29412;SDS011;16389;50.126;8.450;2023-10-13T05:53:45;12.48;;;11.00;;
29412;SDS011;16389;50.126;8.450;2023-10-13T05:56:29;20.30;;;12.52;;
29412;SDS011;16389;50.126;8.450;2023-10-13T05:59:14;20.52;;;13.52;;
29412;SDS011;16389;50.126;8.450;2023-10-13T06:01:59;19.55;;;10.93;;
29412;SDS011;16389;50.126;8.450;2023-10-13T06:04:44;20.35;;;12.23;;
29412;SDS011;16389;50.126;8.450;2023-10-13T06:07:28;14.93;;;11.93;;
29412;SDS011;16389;50.126;8.450;2023-10-13T06:10:13;20.27;;;13.43;;
29412;SDS011;16389;50.126;8.450;2023-10-13T06:12:57;18.15;;;12.82;;
29412;SDS011;16389;50.126;8.450;2023-10-13T06:15:42;18.70;;;12.60;;
29412;SDS011;16389;50.126;8.450;2023-10-13T06:18:26;15.35;;;11.82;;
29412;SDS011;16389;50.126;8.450;2023-10-13T06:21:11;21.75;;;12.60;;
29412;SDS011;16389;50.126;8.450;2023-10-13T06:23:56;18.00;;;11.15;;
29412;SDS011;16389;50.126;8.450;2023-10-13T06:26:40;17.92;;;9.48;;
29412;SDS011;16389;50.126;8.450;2023-10-13T06:29:25;11.73;;;10.07;;
29412;SDS011;16389;50.126;8.450;2023-10-13T06:31:51;14.43;;;9.90;;
29412;SDS011;16389;50.126;8.450;2023-10-13T06:34:18;25.70;;;10.20;;
29412;SDS011;16389;50.126;8.450;2023-10-13T06:36:46;13.48;;;8.02;;
29412;SDS011;16389;50.126;8.450;2023-10-13T06:39:16;9.88;;;8.77;;
29412;SDS011;16389;50.126;8.450;2023-10-13T06:42:00;16.63;;;9.63;;
29412;SDS011;16389;50.126;8.450;2023-10-13T06:44:28;16.85;;;8.75;;
29412;SDS011;16389;50.126;8.450;2023-10-13T06:46:57;11.80;;;7.87;;
29412;SDS011;16389;50.126;8.450;2023-10-13T06:49:23;12.85;;;9.05;;
29412;SDS011;16389;50.126;8.450;2023-10-13T06:51:49;8.48;;;7.57;;
29412;SDS011;16389;50.126;8.450;2023-10-13T06:54:16;11.25;;;7.28;;
29412;SDS011;16389;50.126;8.450;2023-10-13T06:56:45;11.82;;;8.32;;
29412;SDS011;16389;50.126;8.450;2023-10-13T06:59:11;16.45;;;7.68;;
29412;SDS011;16389;50.126;8.450;2023-10-13T07:01:39;10.80;;;7.35;;
29412;SDS011;16389;50.126;8.450;2023-10-13T07:04:09;11.27;;;7.22;;
29412;SDS011;16389;50.126;8.450;2023-10-13T07:06:42;10.55;;;6.63;;
29412;SDS011;16389;50.126;8.450;2023-10-13T07:09:15;9.88;;;7.10;;
29412;SDS011;16389;50.126;8.450;2023-10-13T07:12:05;12.77;;;7.38;;
29412;SDS011;16389;50.126;8.450;2023-10-13T07:14:45;9.32;;;7.35;;
29412;SDS011;16389;50.126;8.450;2023-10-13T07:17:17;9.43;;;7.05;;
29412;SDS011;16389;50.126;8.450;2023-10-13T07:19:50;14.48;;;7.25;;
29412;SDS011;16389;50.126;8.450;2023-10-13T07:22:21;10.23;;;6.63;;
29412;SDS011;16389;50.126;8.450;2023-10-13T07:24:48;12.63;;;7.57;;
29412;SDS011;16389;50.126;8.450;2023-10-13T07:27:30;8.38;;;5.93;;
29412;SDS011;16389;50.126;8.450;2023-10-13T07:30:00;15.18;;;6.30;;
29412;SDS011;16389;50.126;8.450;2023-10-13T07:32:42;13.27;;;6.60;;
29412;SDS011;16389;50.126;8.450;2023-10-13T07:35:12;10.48;;;5.85;;
29412;SDS011;16389;50.126;8.450;2023-10-13T07:37:43;14.25;;;6.63;;
29412;SDS011;16389;50.126;8.450;2023-10-13T07:40:13;10.70;;;5.82;;
29412;SDS011;16389;50.126;8.450;2023-10-13T07:43:12;10.95;;;6.18;;
29412;SDS011;16389;50.126;8.450;2023-10-13T07:45:39;11.55;;;5.68;;
29412;SDS011;16389;50.126;8.450;2023-10-13T07:50:37;9.05;;;5.15;;
29412;SDS011;16389;50.126;8.450;2023-10-13T07:53:03;6.30;;;5.03;;
29412;SDS011;16389;50.126;8.450;2023-10-13T07:55:48;10.02;;;5.47;;
29412;SDS011;16389;50.126;8.450;2023-10-13T07:58:24;8.45;;;5.35;;
29412;SDS011;16389;50.126;8.450;2023-10-13T08:00:50;6.65;;;5.35;;
29412;SDS011;16389;50.126;8.450;2023-10-13T08:03:32;11.70;;;5.10;;
29412;SDS011;16389;50.126;8.450;2023-10-13T08:06:09;10.55;;;6.20;;
29412;SDS011;16389;50.126;8.450;2023-10-13T08:08:36;10.80;;;6.05;;
29412;SDS011;16389;50.126;8.450;2023-10-13T08:11:09;9.03;;;4.87;;
29412;SDS011;16389;50.126;8.450;2023-10-13T08:13:47;8.95;;;4.65;;
29412;SDS011;16389;50.126;8.450;2023-10-13T08:16:22;8.82;;;4.72;;
29412;SDS011;16389;50.126;8.450;2023-10-13T08:18:49;14.07;;;5.22;;
29412;SDS011;16389;50.126;8.450;2023-10-13T08:21:16;9.68;;;4.28;;
29412;SDS011;16389;50.126;8.450;2023-10-13T08:23:51;11.52;;;5.50;;
29412;SDS011;16389;50.126;8.450;2023-10-13T08:26:24;12.77;;;4.63;;
29412;SDS011;16389;50.126;8.450;2023-10-13T08:28:58;7.07;;;4.47;;
29412;SDS011;16389;50.126;8.450;2023-10-13T08:31:53;8.10;;;4.60;;
29412;SDS011;16389;50.126;8.450;2023-10-13T08:34:29;8.23;;;4.78;;
29412;SDS011;16389;50.126;8.450;2023-10-13T08:37:04;8.02;;;4.45;;
29412;SDS011;16389;50.126;8.450;2023-10-13T08:39:48;6.30;;;4.97;;
29412;SDS011;16389;50.126;8.450;2023-10-13T08:42:43;4.72;;;4.10;;
29412;SDS011;16389;50.126;8.450;2023-10-13T08:45:10;8.02;;;4.45;;
29412;SDS011;16389;50.126;8.450;2023-10-13T08:48:06;7.20;;;4.22;;
29412;SDS011;16389;50.126;8.450;2023-10-13T08:50:36;14.57;;;4.82;;
29412;SDS011;16389;50.126;8.450;2023-10-13T08:53:29;6.38;;;4.50;;
29412;SDS011;16389;50.126;8.450;2023-10-13T08:55:59;7.55;;;4.30;;
29412;SDS011;16389;50.126;8.450;2023-10-13T08:58:39;11.02;;;4.90;;
29412;SDS011;16389;50.126;8.450;2023-10-13T09:01:18;8.65;;;4.85;;
29412;SDS011;16389;50.126;8.450;2023-10-13T09:04:03;8.70;;;4.78;;
29412;SDS011;16389;50.126;8.450;2023-10-13T09:14:51;12.57;;;5.63;;
29412;SDS011;16389;50.126;8.450;2023-10-13T09:17:47;9.93;;;6.27;;
29412;SDS011;16389;50.126;8.450;2023-10-13T09:20:17;7.10;;;5.22;;
29412;SDS011;16389;50.126;8.450;2023-10-13T09:22:47;8.07;;;4.78;;
29412;SDS011;16389;50.126;8.450;2023-10-13T09:25:29;9.40;;;5.55;;
29412;SDS011;16389;50.126;8.450;2023-10-13T09:28:02;7.78;;;5.70;;
29412;SDS011;16389;50.126;8.450;2023-10-13T09:30:35;10.75;;;5.32;;
29412;SDS011;16389;50.126;8.450;2023-10-13T09:33:01;10.32;;;5.10;;
29412;SDS011;16389;50.126;8.450;2023-10-13T09:35:30;21.13;;;6.45;;
29412;SDS011;16389;50.126;8.450;2023-10-13T09:38:02;9.93;;;5.75;;
29412;SDS011;16389;50.126;8.450;2023-10-13T09:40:29;8.38;;;4.70;;
29412;SDS011;16389;50.126;8.450;2023-10-13T09:43:01;12.95;;;5.85;;
29412;SDS011;16389;50.126;8.450;2023-10-13T09:45:32;8.63;;;4.53;;
29412;SDS011;16389;50.126;8.450;2023-10-13T09:48:05;10.75;;;4.82;;
29412;SDS011;16389;50.126;8.450;2023-10-13T09:50:36;9.27;;;5.20;;
29412;SDS011;16389;50.126;8.450;2023-10-13T09:53:06;8.45;;;4.57;;
29412;SDS011;16389;50.126;8.450;2023-10-13T09:55:35;7.57;;;4.47;;
29412;SDS011;16389;50.126;8.450;2023-10-13T09:58:07;6.03;;;5.00;;
29412;SDS011;16389;50.126;8.450;2023-10-13T10:00:43;6.07;;;5.03;;
29412;SDS011;16389;50.126;8.450;2023-10-13T10:03:13;11.98;;;5.45;;
29412;SDS011;16389;50.126;8.450;2023-10-13T10:05:58;6.38;;;4.70;;
29412;SDS011;16389;50.126;8.450;2023-10-13T10:08:29;5.88;;;4.13;;
29412;SDS011;16389;50.126;8.450;2023-10-13T10:16:17;7.30;;;4.30;;
29412;SDS011;16389;50.126;8.450;2023-10-13T10:18:47;7.93;;;5.50;;
29412;SDS011;16389;50.126;8.450;2023-10-13T10:21:32;6.32;;;5.22;;
29412;SDS011;16389;50.126;8.450;2023-10-13T10:23:58;8.73;;;5.40;;
29412;SDS011;16389;50.126;8.450;2023-10-13T10:26:27;6.53;;;4.97;;
29412;SDS011;16389;50.126;8.450;2023-10-13T10:28:55;7.97;;;5.38;;
29412;SDS011;16389;50.126;8.450;2023-10-13T10:31:21;8.32;;;5.03;;
29412;SDS011;16389;50.126;8.450;2023-10-13T10:34:15;7.95;;;5.07;;
29412;SDS011;16389;50.126;8.450;2023-10-13T10:36:48;13.77;;;5.07;;
29412;SDS011;16389;50.126;8.450;2023-10-13T10:39:19;8.02;;;4.75;;
29412;SDS011;16389;50.126;8.450;2023-10-13T10:41:46;8.57;;;4.63;;
29412;SDS011;16389;50.126;8.450;2023-10-13T10:44:29;8.95;;;5.32;;
29412;SDS011;16389;50.126;8.450;2023-10-13T10:47:13;4.70;;;4.28;;
29412;SDS011;16389;50.126;8.450;2023-10-13T10:50:09;7.85;;;4.68;;
29412;SDS011;16389;50.126;8.450;2023-10-13T10:52:55;4.75;;;4.30;;
29412;SDS011;16389;50.126;8.450;2023-10-13T10:55:22;9.70;;;5.07;;
29412;SDS011;16389;50.126;8.450;2023-10-13T10:58:00;7.03;;;5.25;;
29412;SDS011;16389;50.126;8.450;2023-10-13T11:00:26;7.88;;;4.88;;
29412;SDS011;16389;50.126;8.450;2023-10-13T11:03:06;7.43;;;4.38;;
29412;SDS011;16389;50.126;8.450;2023-10-13T11:05:42;7.18;;;4.50;;
29412;SDS011;16389;50.126;8.450;2023-10-13T11:08:24;6.28;;;4.32;;
29412;SDS011;16389;50.126;8.450;2023-10-13T11:10:56;10.63;;;4.30;;
29412;SDS011;16389;50.126;8.450;2023-10-13T11:13:25;6.25;;;5.25;;
29412;SDS011;16389;50.126;8.450;2023-10-13T11:15:55;4.80;;;3.88;;
29412;SDS011;16389;50.126;8.450;2023-10-13T11:18:28;6.35;;;4.25;;
29412;SDS011;16389;50.126;8.450;2023-10-13T11:21:03;5.63;;;4.07;;
29412;SDS011;16389;50.126;8.450;2023-10-13T11:23:32;5.28;;;3.95;;
29412;SDS011;16389;50.126;8.450;2023-10-13T11:26:02;6.07;;;3.85;;
29412;SDS011;16389;50.126;8.450;2023-10-13T11:28:31;7.88;;;4.30;;
29412;SDS011;16389;50.126;8.450;2023-10-13T11:30:59;8.18;;;4.20;;
29412;SDS011;16389;50.126;8.450;2023-10-13T11:33:26;6.63;;;4.47;;
29412;SDS011;16389;50.126;8.450;2023-10-13T11:35:56;5.45;;;4.18;;
29412;SDS011;16389;50.126;8.450;2023-10-13T11:41:13;6.57;;;4.60;;
29412;SDS011;16389;50.126;8.450;2023-10-13T11:46:12;4.55;;;4.15;;
29412;SDS011;16389;50.126;8.450;2023-10-13T11:48:44;4.63;;;4.20;;
29412;SDS011;16389;50.126;8.450;2023-10-13T11:51:14;5.03;;;4.55;;
29412;SDS011;16389;50.126;8.450;2023-10-13T11:53:49;5.65;;;4.93;;
29412;SDS011;16389;50.126;8.450;2023-10-13T11:56:21;5.15;;;4.07;;
29412;SDS011;16389;50.126;8.450;2023-10-13T11:58:47;11.35;;;4.70;;
29412;SDS011;16389;50.126;8.450;2023-10-13T12:01:14;5.05;;;4.53;;
29412;SDS011;16389;50.126;8.450;2023-10-13T12:03:41;9.77;;;4.25;;
29412;SDS011;16389;50.126;8.450;2023-10-13T12:06:29;4.95;;;4.40;;
29412;SDS011;16389;50.126;8.450;2023-10-13T12:09:00;5.45;;;4.95;;
29412;SDS011;16389;50.126;8.450;2023-10-13T12:12:06;5.28;;;3.92;;
29412;SDS011;16389;50.126;8.450;2023-10-13T12:14:35;4.85;;;4.10;;
29412;SDS011;16389;50.126;8.450;2023-10-13T12:17:17;5.30;;;4.25;;
29412;SDS011;16389;50.126;8.450;2023-10-13T12:19:52;5.00;;;4.55;;
29412;SDS011;16389;50.126;8.450;2023-10-13T12:22:19;7.22;;;5.03;;
29412;SDS011;16389;50.126;8.450;2023-10-13T12:25:00;8.40;;;5.05;;
29412;SDS011;16389;50.126;8.450;2023-10-13T12:27:30;4.72;;;4.18;;
29412;SDS011;16389;50.126;8.450;2023-10-13T12:30:11;5.65;;;4.15;;
29412;SDS011;16389;50.126;8.450;2023-10-13T12:32:39;7.05;;;4.38;;
29412;SDS011;16389;50.126;8.450;2023-10-13T12:35:19;8.68;;;4.50;;
29412;SDS011;16389;50.126;8.450;2023-10-13T12:38:02;5.20;;;4.68;;
29412;SDS011;16389;50.126;8.450;2023-10-13T12:40:41;7.60;;;4.85;;
29412;SDS011;16389;50.126;8.450;2023-10-13T12:43:26;5.60;;;5.10;;
29412;SDS011;16389;50.126;8.450;2023-10-13T12:46:10;14.40;;;5.13;;
29412;SDS011;16389;50.126;8.450;2023-10-13T12:49:14;5.70;;;4.63;;
29412;SDS011;16389;50.126;8.450;2023-10-13T12:52:00;9.68;;;4.28;;
29412;SDS011;16389;50.126;8.450;2023-10-13T12:54:40;11.73;;;4.65;;
29412;SDS011;16389;50.126;8.450;2023-10-13T12:57:21;5.90;;;4.10;;
29412;SDS011;16389;50.126;8.450;2023-10-13T12:59:53;5.10;;;4.55;;
29412;SDS011;16389;50.126;8.450;2023-10-13T13:02:23;6.18;;;4.70;;
29412;SDS011;16389;50.126;8.450;2023-10-13T13:04:52;6.32;;;4.45;;
29412;SDS011;16389;50.126;8.450;2023-10-13T13:07:36;8.65;;;4.65;;
29412;SDS011;16389;50.126;8.450;2023-10-13T13:10:12;14.93;;;5.63;;
29412;SDS011;16389;50.126;8.450;2023-10-13T13:12:39;7.40;;;4.22;;
29412;SDS011;16389;50.126;8.450;2023-10-13T13:15:05;6.35;;;3.97;;
29412;SDS011;16389;50.126;8.450;2023-10-13T13:17:36;6.07;;;3.80;;
29412;SDS011;16389;50.126;8.450;2023-10-13T13:20:08;10.48;;;5.18;;
29412;SDS011;16389;50.126;8.450;2023-10-13T13:22:52;5.93;;;4.07;;
29412;SDS011;16389;50.126;8.450;2023-10-13T13:25:19;4.65;;;3.60;;
29412;SDS011;16389;50.126;8.450;2023-10-13T13:28:01;5.38;;;4.55;;
29412;SDS011;16389;50.126;8.450;2023-10-13T13:30:44;6.20;;;4.67;;
29412;SDS011;16389;50.126;8.450;2023-10-13T13:33:14;7.30;;;3.72;;
29412;SDS011;16389;50.126;8.450;2023-10-13T13:35:41;7.65;;;5.03;;
29412;SDS011;16389;50.126;8.450;2023-10-13T13:38:13;4.53;;;3.97;;
29412;SDS011;16389;50.126;8.450;2023-10-13T13:40:47;8.45;;;4.00;;
29412;SDS011;16389;50.126;8.450;2023-10-13T13:43:22;10.32;;;4.60;;
29412;SDS011;16389;50.126;8.450;2023-10-13T13:46:04;4.70;;;4.05;;
29412;SDS011;16389;50.126;8.450;2023-10-13T13:48:35;6.45;;;4.15;;
29412;SDS011;16389;50.126;8.450;2023-10-13T13:51:05;6.90;;;4.40;;
29412;SDS011;16389;50.126;8.450;2023-10-13T13:53:40;8.35;;;4.15;;
29412;SDS011;16389;50.126;8.450;2023-10-13T13:56:13;4.47;;;3.85;;
29412;SDS011;16389;50.126;8.450;2023-10-13T13:58:44;4.28;;;3.72;;
29412;SDS011;16389;50.126;8.450;2023-10-13T14:01:11;6.22;;;4.00;;
29412;SDS011;16389;50.126;8.450;2023-10-13T14:03:46;5.60;;;3.25;;
29412;SDS011;16389;50.126;8.450;2023-10-13T14:06:18;4.40;;;3.55;;
29412;SDS011;16389;50.126;8.450;2023-10-13T14:08:48;6.38;;;4.10;;
29412;SDS011;16389;50.126;8.450;2023-10-13T14:11:19;6.13;;;4.32;;
29412;SDS011;16389;50.126;8.450;2023-10-13T14:14:04;4.25;;;3.60;;
29412;SDS011;16389;50.126;8.450;2023-10-13T14:16:37;7.25;;;4.78;;
29412;SDS011;16389;50.126;8.450;2023-10-13T14:19:09;6.28;;;4.22;;
29412;SDS011;16389;50.126;8.450;2023-10-13T14:21:35;10.38;;;4.82;;
29412;SDS011;16389;50.126;8.450;2023-10-13T14:24:01;8.10;;;4.00;;
29412;SDS011;16389;50.126;8.450;2023-10-13T14:26:27;9.13;;;4.75;;
29412;SDS011;16389;50.126;8.450;2023-10-13T14:28:54;6.30;;;4.40;;
29412;SDS011;16389;50.126;8.450;2023-10-13T14:31:39;9.93;;;4.90;;
29412;SDS011;16389;50.126;8.450;2023-10-13T14:34:06;5.55;;;4.85;;
29412;SDS011;16389;50.126;8.450;2023-10-13T14:36:32;4.03;;;3.65;;
29412;SDS011;16389;50.126;8.450;2023-10-13T14:39:10;6.80;;;4.07;;
29412;SDS011;16389;50.126;8.450;2023-10-13T14:41:36;9.00;;;4.47;;
29412;SDS011;16389;50.126;8.450;2023-10-13T14:44:05;9.23;;;4.85;;
29412;SDS011;16389;50.126;8.450;2023-10-13T14:46:35;8.48;;;4.75;;
29412;SDS011;16389;50.126;8.450;2023-10-13T14:49:01;8.03;;;5.17;;
29412;SDS011;16389;50.126;8.450;2023-10-13T14:51:28;5.18;;;4.50;;
29412;SDS011;16389;50.126;8.450;2023-10-13T14:53:54;6.88;;;5.18;;
29412;SDS011;16389;50.126;8.450;2023-10-13T14:56:25;6.80;;;4.55;;
29412;SDS011;16389;50.126;8.450;2023-10-13T14:58:52;4.53;;;3.90;;
29412;SDS011;16389;50.126;8.450;2023-10-13T15:01:19;8.38;;;5.00;;
29412;SDS011;16389;50.126;8.450;2023-10-13T15:03:48;6.78;;;4.55;;
29412;SDS011;16389;50.126;8.450;2023-10-13T15:08:43;7.43;;;5.38;;
29412;SDS011;16389;50.126;8.450;2023-10-13T15:11:11;7.78;;;5.35;;
29412;SDS011;16389;50.126;8.450;2023-10-13T15:13:41;7.70;;;5.15;;
29412;SDS011;16389;50.126;8.450;2023-10-13T15:16:17;5.53;;;4.88;;
29412;SDS011;16389;50.126;8.450;2023-10-13T15:18:46;7.25;;;6.13;;
29412;SDS011;16389;50.126;8.450;2023-10-13T15:21:19;6.30;;;5.28;;
29412;SDS011;16389;50.126;8.450;2023-10-13T15:24:01;7.18;;;5.68;;
29412;SDS011;16389;50.126;8.450;2023-10-13T15:26:46;6.35;;;5.75;;
29412;SDS011;16389;50.126;8.450;2023-10-13T15:29:16;6.13;;;5.53;;
29412;SDS011;16389;50.126;8.450;2023-10-13T15:31:43;6.65;;;4.78;;
29412;SDS011;16389;50.126;8.450;2023-10-13T15:34:26;5.60;;;4.70;;
29412;SDS011;16389;50.126;8.450;2023-10-13T15:36:55;10.88;;;5.38;;
29412;SDS011;16389;50.126;8.450;2023-10-13T15:39:24;5.07;;;4.38;;
29412;SDS011;16389;50.126;8.450;2023-10-13T15:41:53;5.07;;;4.10;;
29412;SDS011;16389;50.126;8.450;2023-10-13T15:44:23;8.70;;;4.68;;
29412;SDS011;16389;50.126;8.450;2023-10-13T15:46:53;3.40;;;3.08;;
29412;SDS011;16389;50.126;8.450;2023-10-13T15:49:20;7.70;;;4.78;;